Time,TemperatureF,DewpointF,PressureIn,WindDirection,WindDirectionDegrees,WindSpeedMPH,WindSpeedGustMPH,Humidity,HourlyPrecipIn,Conditions,Clouds,dailyrainin,SoftwareType,DateUTC
2013-03-23 00:00:00,41.4,33.0,28.88,SW,225,0.0,0.0,72,0.00,CLR,,0.00,WeatherDisplay:10.37,2013-03-23 04:00:00,
2013-03-23 00:05:00,41.4,32.3,28.88,SW,225,0.0,0.0,70,0.00,CLR,,0.00,WeatherDisplay:10.37,2013-03-23 04:05:00,
2013-03-23 00:10:00,41.5,33.2,28.88,SW,225,0.0,0.0,72,0.00,CLR,,0.00,WeatherDisplay:10.37,2013-03-23 04:10:00,
2013-03-23 00:15:00,41.5,32.8,28.89,SW,225,0.0,0.0,71,0.00,CLR,,0.00,WeatherDisplay:10.37,2013-03-23 04:15:00,
2013-03-23 00:20:00,41.5,32.8,28.88,SW,225,0.0,0.0,71,0.00,CLR,,0.00,WeatherDisplay:10.37,2013-03-23 04:20:00,
2013-03-23 00:25:00,41.5,33.5,28.88,SW,225,0.0,0.0,73,0.00,CLR,,0.00,WeatherDisplay:10.37,2013-03-23 04:25:00,
2013-03-23 00:30:00,41.4,33.4,28.88,SW,225,0.0,0.0,73,0.00,CLR,,0.00,WeatherDisplay:10.37,2013-03-23 04:30:00,
2013-03-23 00:35:00,41.5,33.5,28.88,SW,225,0.0,0.0,73,0.00,CLR,,0.00,WeatherDisplay:10.37,2013-03-23 04:35:00,
2013-03-23 00:40:00,41.5,33.9,28.88,SW,225,0.0,0.0,74,0.00,CLR,,0.00,WeatherDisplay:10.37,2013-03-23 04:40:00,
2013-03-23 00:45:00,41.5,33.5,28.89,SW,225,0.0,0.0,73,0.00,CLR,,0.00,WeatherDisplay:10.37,2013-03-23 04:45:00,
2013-03-23 00:50:00,41.5,32.8,28.88,SW,225,1.1,0.0,71,0.00,CLR,,0.00,WeatherDisplay:10.37,2013-03-23 04:50:00,
2013-03-23 00:55:00,41.5,33.2,28.88,SW,225,0.0,0.0,72,0.00,CLR,,0.00,WeatherDisplay:10.37,2013-03-23 04:55:00,
2013-03-23 01:00:00,41.5,32.8,28.88,SW,225,0.0,0.0,71,0.00,CLR,,0.00,WeatherDisplay:10.37,2013-03-23 05:00:00,
2013-03-23 01:05:00,41.5,32.8,28.88,SW,225,0.0,0.0,71,0.00,CLR,,0.00,WeatherDisplay:10.37,2013-03-23 05:05:00,
2013-03-23 01:10:00,41.4,33.4,28.88,SW,225,0.0,0.0,73,0.00,CLR,,0.00,WeatherDisplay:10.37,2013-03-23 05:10:00,
2013-03-23 01:15:00,41.2,32.8,28.88,SW,225,0.0,0.0,72,0.00,CLR,,0.00,WeatherDisplay:10.37,2013-03-23 05:15:00,
2013-03-23 01:20:00,41.0,32.7,28.88,SW,225,0.0,0.0,72,0.00,CLR,,0.00,WeatherDisplay:10.37,2013-03-23 05:20:00,
2013-03-23 01:25:00,41.0,32.7,28.87,SW,225,0.0,0.0,72,0.00,CLR,,0.00,WeatherDisplay:10.37,2013-03-23 05:25:00,
2013-03-23 01:30:00,40.5,33.2,28.87,SW,225,0.0,0.0,75,0.00,CLR,,0.00,WeatherDisplay:10.37,2013-03-23 05:30:00,
2013-03-23 01:35:00,40.3,33.0,28.88,SW,225,1.1,0.0,75,0.00,CLR,,0.00,WeatherDisplay:10.37,2013-03-23 05:35:00,
2013-03-23 01:40:00,40.1,33.8,28.88,SW,225,0.0,0.0,78,0.00,CLR,,0.00,WeatherDisplay:10.37,2013-03-23 05:40:00,
2013-03-23 01:45:00,39.9,33.3,28.87,SW,225,0.0,0.0,77,0.00,CLR,,0.00,WeatherDisplay:10.37,2013-03-23 05:45:00,
2013-03-23 01:50:00,39.7,33.1,28.87,SW,225,0.0,0.0,77,0.00,CLR,,0.00,WeatherDisplay:10.37,2013-03-23 05:50:00,
2013-03-23 01:55:00,39.6,32.6,28.87,SW,225,1.1,0.0,76,0.00,CLR,,0.00,WeatherDisplay:10.37,2013-03-23 05:55:00,
2013-03-23 02:00:00,39.4,32.8,28.87,SW,225,0.0,0.0,77,0.00,CLR,,0.00,WeatherDisplay:10.37,2013-03-23 06:00:00,
2013-03-23 02:05:00,39.4,32.8,28.86,SW,225,0.0,0.0,77,0.00,CLR,,0.00,WeatherDisplay:10.37,2013-03-23 06:05:00,
2013-03-23 02:10:00,39.0,32.4,28.87,SW,225,0.0,0.0,77,0.00,CLR,,0.00,WeatherDisplay:10.37,2013-03-23 06:10:00,
2013-03-23 02:15:00,38.7,32.4,28.86,SW,225,0.0,0.0,78,0.00,CLR,,0.00,WeatherDisplay:10.37,2013-03-23 06:15:00,
2013-03-23 02:20:00,38.5,32.2,28.86,SW,225,0.0,0.0,78,0.00,CLR,,0.00,WeatherDisplay:10.37,2013-03-23 06:20:00,
2013-03-23 02:25:00,38.5,32.2,28.87,SW,225,0.0,0.0,78,0.00,CLR,,0.00,WeatherDisplay:10.37,2013-03-23 06:25:00,
2013-03-23 02:30:00,38.7,32.7,28.86,SW,225,0.0,0.0,79,0.00,CLR,,0.00,WeatherDisplay:10.37,2013-03-23 06:30:00,
2013-03-23 02:35:00,38.7,32.7,28.86,SW,225,0.0,0.0,79,0.00,CLR,,0.00,WeatherDisplay:10.37,2013-03-23 06:35:00,
2013-03-23 02:40:00,38.7,33.0,28.86,SW,225,0.0,0.0,80,0.00,CLR,,0.00,WeatherDisplay:10.37,2013-03-23 06:40:00,
2013-03-23 02:45:00,38.8,33.2,28.86,SW,225,0.0,0.0,80,0.00,CLR,,0.00,WeatherDisplay:10.37,2013-03-23 06:45:00,
2013-03-23 02:50:00,38.8,33.2,28.85,SW,225,0.0,0.0,80,0.00,CLR,,0.00,WeatherDisplay:10.37,2013-03-23 06:50:00,
2013-03-23 02:55:00,38.5,32.8,28.86,SW,225,0.0,0.0,80,0.00,CLR,,0.00,WeatherDisplay:10.37,2013-03-23 06:55:00,
2013-03-23 03:00:00,38.1,33.1,28.86,SW,225,0.0,0.0,82,0.00,CLR,,0.00,WeatherDisplay:10.37,2013-03-23 07:00:00,
2013-03-23 03:05:00,38.1,33.1,28.86,SW,225,0.0,0.0,82,0.00,CLR,,0.00,WeatherDisplay:10.37,2013-03-23 07:05:00,
2013-03-23 03:10:00,37.2,32.2,28.85,SW,225,0.0,0.0,82,0.00,CLR,,0.00,WeatherDisplay:10.37,2013-03-23 07:10:00,
2013-03-23 03:15:00,36.9,32.2,28.85,SW,225,0.0,0.0,83,0.00,CLR,,0.00,WeatherDisplay:10.37,2013-03-23 07:15:00,
2013-03-23 03:20:00,36.7,32.0,28.85,SW,225,0.0,0.0,83,0.00,CLR,,0.00,WeatherDisplay:10.37,2013-03-23 07:20:00,
2013-03-23 03:25:00,36.7,32.3,28.85,SW,225,0.0,0.0,84,0.00,CLR,,0.00,WeatherDisplay:10.37,2013-03-23 07:25:00,
2013-03-23 03:30:00,36.3,31.9,28.85,SW,225,0.0,0.0,84,0.00,CLR,,0.00,WeatherDisplay:10.37,2013-03-23 07:30:00,
2013-03-23 03:35:00,36.1,31.8,28.85,SW,225,0.0,0.0,84,0.00,CLR,,0.00,WeatherDisplay:10.37,2013-03-23 07:35:00,
2013-03-23 03:40:00,36.0,31.6,28.86,SW,225,0.0,0.0,84,0.00,CLR,,0.00,WeatherDisplay:10.37,2013-03-23 07:40:00,
2013-03-23 03:45:00,35.6,31.2,28.87,SW,225,0.0,0.0,84,0.00,CLR,,0.00,WeatherDisplay:10.37,2013-03-23 07:45:00,
2013-03-23 03:50:00,35.6,31.5,28.86,SW,225,0.0,0.0,85,0.00,CLR,,0.00,WeatherDisplay:10.37,2013-03-23 07:50:00,
2013-03-23 03:55:00,35.6,31.8,28.86,SW,225,0.0,0.0,86,0.00,CLR,,0.00,WeatherDisplay:10.37,2013-03-23 07:55:00,
2013-03-23 04:00:00,35.4,31.6,28.86,SW,225,0.0,0.0,86,0.00,CLR,,0.00,WeatherDisplay:10.37,2013-03-23 08:00:00,
2013-03-23 04:05:00,35.4,31.6,28.86,SW,225,0.0,0.0,86,0.00,CLR,,0.00,WeatherDisplay:10.37,2013-03-23 08:05:00,
2013-03-23 04:10:00,35.2,32.3,28.86,SW,225,0.0,0.0,89,0.00,CLR,,0.00,WeatherDisplay:10.37,2013-03-23 08:10:00,
2013-03-23 04:15:00,35.2,32.6,28.85,SW,225,0.0,0.0,90,0.00,CLR,,0.00,WeatherDisplay:10.37,2013-03-23 08:15:00,
2013-03-23 04:20:00,35.2,32.3,28.85,SW,225,0.0,0.0,89,0.00,CLR,,0.00,WeatherDisplay:10.37,2013-03-23 08:20:00,
2013-03-23 04:25:00,35.4,32.5,28.85,SW,225,0.0,0.0,89,0.00,CLR,,0.00,WeatherDisplay:10.37,2013-03-23 08:25:00,
2013-03-23 04:30:00,35.4,32.5,28.84,SW,225,0.0,0.0,89,0.00,CLR,,0.00,WeatherDisplay:10.37,2013-03-23 08:30:00,
2013-03-23 04:35:00,35.6,33.5,28.84,SW,225,0.0,0.0,92,0.00,CLR,,0.00,WeatherDisplay:10.37,2013-03-23 08:35:00,
2013-03-23 04:40:00,35.6,33.0,28.84,SW,225,0.0,0.0,90,0.00,CLR,,0.00,WeatherDisplay:10.37,2013-03-23 08:40:00,
2013-03-23 04:45:00,35.8,33.1,28.84,SW,225,0.0,0.0,90,0.00,CLR,,0.00,WeatherDisplay:10.37,2013-03-23 08:45:00,
2013-03-23 04:50:00,35.8,33.4,28.84,SW,225,0.0,0.0,91,0.00,CLR,,0.00,WeatherDisplay:10.37,2013-03-23 08:50:00,
2013-03-23 04:55:00,36.0,33.6,28.84,SW,225,0.0,0.0,91,0.00,CLR,,0.00,WeatherDisplay:10.37,2013-03-23 08:55:00,
2013-03-23 05:00:00,36.1,33.8,28.84,SW,225,0.0,0.0,91,0.00,CLR,,0.00,WeatherDisplay:10.37,2013-03-23 09:00:00,
2013-03-23 05:05:00,36.1,33.8,28.84,SW,225,0.0,0.0,91,0.00,CLR,,0.00,WeatherDisplay:10.37,2013-03-23 09:05:00,
2013-03-23 05:10:00,36.1,33.8,28.84,SW,225,0.0,0.0,91,0.00,CLR,,0.00,WeatherDisplay:10.37,2013-03-23 09:10:00,
2013-03-23 05:15:00,36.3,33.9,28.84,SW,225,0.0,0.0,91,0.00,CLR,,0.00,WeatherDisplay:10.37,2013-03-23 09:15:00,
2013-03-23 05:20:00,36.5,34.7,28.83,SW,225,0.0,0.0,93,0.00,CLR,,0.00,WeatherDisplay:10.37,2013-03-23 09:20:00,
2013-03-23 05:25:00,36.7,34.6,28.83,SW,225,0.0,0.0,92,0.00,CLR,,0.00,WeatherDisplay:10.37,2013-03-23 09:25:00,
2013-03-23 05:30:00,36.9,34.8,28.83,SW,225,0.0,0.0,92,0.00,CLR,,0.00,WeatherDisplay:10.37,2013-03-23 09:30:00,
2013-03-23 05:35:00,37.0,34.7,28.84,SW,225,0.0,0.0,91,0.00,CLR,,0.00,WeatherDisplay:10.37,2013-03-23 09:35:00,
2013-03-23 05:40:00,37.2,34.8,28.85,SW,225,1.1,0.0,91,0.00,CLR,,0.00,WeatherDisplay:10.37,2013-03-23 09:40:00,
2013-03-23 05:45:00,37.2,34.8,28.85,SW,225,0.0,0.0,91,0.00,CLR,,0.00,WeatherDisplay:10.37,2013-03-23 09:45:00,
2013-03-23 05:50:00,37.4,35.0,28.85,SW,225,0.0,0.0,91,0.00,CLR,,0.00,WeatherDisplay:10.37,2013-03-23 09:50:00,
2013-03-23 05:55:00,37.6,34.9,28.85,SW,225,0.0,0.0,90,0.00,CLR,,0.00,WeatherDisplay:10.37,2013-03-23 09:55:00,
2013-03-23 06:00:00,37.8,34.8,28.84,SW,225,0.0,0.0,89,0.00,CLR,,0.00,WeatherDisplay:10.37,2013-03-23 10:00:00,
2013-03-23 06:05:00,38.1,35.4,28.83,SW,225,0.0,0.0,90,0.00,CLR,,0.00,WeatherDisplay:10.37,2013-03-23 10:05:00,
2013-03-23 06:10:00,38.3,35.6,28.84,SW,225,0.0,0.0,90,0.00,CLR,,0.00,WeatherDisplay:10.37,2013-03-23 10:10:00,
2013-03-23 06:15:00,38.3,35.9,28.84,SW,225,0.0,0.0,91,0.00,CLR,,0.00,WeatherDisplay:10.37,2013-03-23 10:15:00,
2013-03-23 06:20:00,38.3,35.6,28.85,SW,225,0.0,0.0,90,0.00,CLR,,0.00,WeatherDisplay:10.37,2013-03-23 10:20:00,
2013-03-23 06:25:00,38.5,35.5,28.84,SW,225,0.0,0.0,89,0.00,CLR,,0.00,WeatherDisplay:10.37,2013-03-23 10:25:00,
2013-03-23 06:30:00,38.5,35.5,28.84,SW,225,0.0,0.0,89,0.00,CLR,,0.00,WeatherDisplay:10.37,2013-03-23 10:30:00,
2013-03-23 06:35:00,38.5,35.5,28.84,SW,225,0.0,0.0,89,0.00,CLR,,0.00,WeatherDisplay:10.37,2013-03-23 10:35:00,
2013-03-23 06:40:00,38.7,36.0,28.85,SW,225,0.0,0.0,90,0.00,CLR,,0.00,WeatherDisplay:10.37,2013-03-23 10:40:00,
2013-03-23 06:45:00,38.7,36.3,28.85,SW,225,0.0,0.0,91,0.00,CLR,,0.00,WeatherDisplay:10.37,2013-03-23 10:45:00,
2013-03-23 06:50:00,38.7,36.0,28.85,SW,225,0.0,0.0,90,0.00,CLR,,0.00,WeatherDisplay:10.37,2013-03-23 10:50:00,
2013-03-23 06:55:00,38.8,35.9,28.86,SW,225,0.0,0.0,89,0.00,CLR,,0.00,WeatherDisplay:10.37,2013-03-23 10:55:00,
2013-03-23 07:00:00,38.8,36.4,28.86,SW,225,0.0,0.0,91,0.00,CLR,,0.00,WeatherDisplay:10.37,2013-03-23 11:00:00,
2013-03-23 07:05:00,39.0,36.3,28.87,SW,225,0.0,0.0,90,0.00,CLR,,0.00,WeatherDisplay:10.37,2013-03-23 11:05:00,
2013-03-23 07:10:00,39.0,36.3,28.87,SW,225,0.0,0.0,90,0.00,CLR,,0.00,WeatherDisplay:10.37,2013-03-23 11:10:00,
2013-03-23 07:15:00,39.2,36.8,28.87,SW,225,0.0,0.0,91,0.00,CLR,,0.00,WeatherDisplay:10.37,2013-03-23 11:15:00,
2013-03-23 07:20:00,39.2,36.8,28.87,SW,225,0.0,0.0,91,0.00,CLR,,0.00,WeatherDisplay:10.37,2013-03-23 11:20:00,
2013-03-23 07:25:00,39.2,37.1,28.87,SW,225,0.0,0.0,92,0.00,CLR,,0.00,WeatherDisplay:10.37,2013-03-23 11:25:00,
2013-03-23 07:30:00,39.0,37.4,28.88,SW,225,0.0,0.0,94,0.00,CLR,,0.00,WeatherDisplay:10.37,2013-03-23 11:30:00,
2013-03-23 07:35:00,38.7,37.6,28.88,SW,225,0.0,0.0,96,0.00,CLR,,0.00,WeatherDisplay:10.37,2013-03-23 11:35:00,
2013-03-23 07:40:00,38.5,38.0,28.88,SW,225,0.0,0.0,98,0.00,CLR,,0.00,WeatherDisplay:10.37,2013-03-23 11:40:00,
2013-03-23 07:45:00,38.3,38.0,28.88,SW,225,0.0,0.0,99,0.00,,,0.00,WeatherDisplay:10.37,2013-03-23 11:45:00,
2013-03-23 07:50:00,38.3,38.0,28.89,SW,225,0.0,0.0,99,0.00,,,0.00,WeatherDisplay:10.37,2013-03-23 11:50:00,
2013-03-23 07:55:00,38.3,38.0,28.89,SW,225,0.0,0.0,99,0.00,,,0.01,WeatherDisplay:10.37,2013-03-23 11:55:00,
2013-03-23 08:00:00,38.3,38.0,28.89,SW,225,0.0,0.0,99,0.01,RA,,0.01,WeatherDisplay:10.37,2013-03-23 12:00:00,
2013-03-23 08:05:00,38.3,38.0,28.90,SW,225,0.0,0.0,99,0.01,RA,,0.01,WeatherDisplay:10.37,2013-03-23 12:05:00,
2013-03-23 08:10:00,38.3,38.0,28.89,SW,225,0.0,0.0,99,0.01,CLR,,0.01,WeatherDisplay:10.37,2013-03-23 12:10:00,
2013-03-23 08:15:00,38.3,38.0,28.89,SW,225,0.0,0.0,99,0.01,,,0.01,WeatherDisplay:10.37,2013-03-23 12:15:00,
2013-03-23 08:20:00,38.3,38.0,28.90,SW,225,0.0,0.0,99,0.02,RA,,0.02,WeatherDisplay:10.37,2013-03-23 12:20:00,
2013-03-23 08:25:00,38.3,38.0,28.90,SW,225,0.0,0.0,99,0.02,RA,,0.02,WeatherDisplay:10.37,2013-03-23 12:25:00,
2013-03-23 08:30:00,38.3,38.0,28.89,SW,225,0.0,0.0,99,0.02,,,0.02,WeatherDisplay:10.37,2013-03-23 12:30:00,
2013-03-23 08:35:00,38.3,38.0,28.89,SW,225,0.0,0.0,99,0.02,CLR,,0.02,WeatherDisplay:10.37,2013-03-23 12:35:00,
2013-03-23 08:40:00,38.3,38.0,28.89,SW,225,0.0,0.0,99,0.04,RA,,0.04,WeatherDisplay:10.37,2013-03-23 12:40:00,
2013-03-23 08:45:00,38.3,38.0,28.88,SW,225,2.3,2.3,99,0.04,RA,,0.04,WeatherDisplay:10.37,2013-03-23 12:45:00,
2013-03-23 08:50:00,38.3,38.0,28.87,SW,225,2.3,2.3,99,0.04,CLR,,0.04,WeatherDisplay:10.37,2013-03-23 12:50:00,
2013-03-23 08:56:00,38.3,38.0,28.87,SW,225,1.1,0.0,99,0.02,,,0.04,WeatherDisplay:10.37,2013-03-23 12:56:00,
2013-03-23 09:01:00,38.5,38.2,28.87,SW,225,0.0,0.0,99,0.02,CLR,,0.04,WeatherDisplay:10.37,2013-03-23 13:01:00,
2013-03-23 09:06:00,38.8,38.6,28.88,SW,225,0.0,0.0,99,0.02,CLR,,0.04,WeatherDisplay:10.37,2013-03-23 13:06:00,
2013-03-23 09:11:00,39.0,38.8,28.88,SW,225,0.0,0.0,99,0.02,CLR,,0.04,WeatherDisplay:10.37,2013-03-23 13:11:00,
2013-03-23 09:16:00,39.0,38.8,28.88,SW,225,0.0,0.0,99,0.02,CLR,,0.04,WeatherDisplay:10.37,2013-03-23 13:16:00,
2013-03-23 09:22:00,39.2,38.9,28.89,SW,225,0.0,0.0,99,0.01,CLR,,0.04,WeatherDisplay:10.37,2013-03-23 13:22:00,
2013-03-23 09:27:00,39.4,39.1,28.90,SW,225,0.0,0.0,99,0.01,CLR,,0.04,WeatherDisplay:10.37,2013-03-23 13:27:00,
2013-03-23 09:32:00,39.6,39.3,28.91,SW,225,0.0,0.0,99,0.01,CLR,,0.04,WeatherDisplay:10.37,2013-03-23 13:32:00,
2013-03-23 09:37:00,39.7,39.5,28.91,SW,225,0.0,0.0,99,0.01,CLR,,0.04,WeatherDisplay:10.37,2013-03-23 13:37:00,
2013-03-23 09:42:00,39.7,39.5,28.91,SW,225,0.0,0.0,99,0.00,,,0.04,WeatherDisplay:10.37,2013-03-23 13:42:00,
2013-03-23 09:47:00,39.9,39.7,28.91,SW,225,0.0,0.0,99,0.00,,,0.04,WeatherDisplay:10.37,2013-03-23 13:47:00,
2013-03-23 09:52:00,39.9,39.7,28.90,SW,225,0.0,0.0,99,0.00,,,0.04,WeatherDisplay:10.37,2013-03-23 13:52:00,
2013-03-23 09:57:00,39.9,39.7,28.90,SW,225,1.1,0.0,99,0.00,,,0.04,WeatherDisplay:10.37,2013-03-23 13:57:00,
2013-03-23 10:02:00,39.9,39.7,28.90,SW,225,0.0,0.0,99,0.00,,,0.04,WeatherDisplay:10.37,2013-03-23 14:02:00,
2013-03-23 10:07:00,40.1,39.8,28.90,SW,225,0.0,0.0,99,0.00,,,0.04,WeatherDisplay:10.37,2013-03-23 14:07:00,
2013-03-23 10:12:00,40.1,39.8,28.90,SW,225,0.0,0.0,99,0.00,,,0.04,WeatherDisplay:10.37,2013-03-23 14:12:00,
2013-03-23 10:17:00,40.1,39.8,28.90,SW,225,0.0,0.0,99,0.00,,,0.04,WeatherDisplay:10.37,2013-03-23 14:17:00,
2013-03-23 10:22:00,40.3,40.0,28.90,SW,225,0.0,0.0,99,0.00,,,0.04,WeatherDisplay:10.37,2013-03-23 14:22:00,
2013-03-23 10:27:00,40.3,40.0,28.90,SW,225,0.0,0.0,99,0.00,,,0.04,WeatherDisplay:10.37,2013-03-23 14:27:00,
2013-03-23 10:32:00,40.5,40.2,28.90,SW,225,0.0,0.0,99,0.00,,,0.04,WeatherDisplay:10.37,2013-03-23 14:32:00,
2013-03-23 10:38:00,40.5,40.2,28.90,SW,225,0.0,0.0,99,0.00,,,0.04,WeatherDisplay:10.37,2013-03-23 14:38:00,
2013-03-23 10:42:00,40.6,40.4,28.91,SW,225,1.1,0.0,99,0.00,,,0.04,WeatherDisplay:10.37,2013-03-23 14:42:00,
2013-03-23 10:47:00,40.6,40.4,28.92,SW,225,2.3,0.0,99,0.00,,,0.04,WeatherDisplay:10.37,2013-03-23 14:47:00,
2013-03-23 10:52:00,40.8,40.6,28.91,SW,225,0.0,0.0,99,0.00,,,0.04,WeatherDisplay:10.37,2013-03-23 14:52:00,
2013-03-23 10:57:00,40.8,40.6,28.91,SW,225,0.0,0.0,99,0.00,,,0.04,WeatherDisplay:10.37,2013-03-23 14:57:00,
2013-03-23 11:03:00,41.0,40.7,28.91,SW,225,0.0,0.0,99,0.00,,,0.04,WeatherDisplay:10.37,2013-03-23 15:03:00,
2013-03-23 11:08:00,41.0,40.7,28.91,SW,225,0.0,0.0,99,0.00,,,0.04,WeatherDisplay:10.37,2013-03-23 15:08:00,
2013-03-23 11:13:00,41.2,40.9,28.91,SW,225,0.0,0.0,99,0.00,,,0.04,WeatherDisplay:10.37,2013-03-23 15:13:00,
2013-03-23 11:18:00,41.2,40.9,28.90,SW,225,0.0,0.0,99,0.00,,,0.04,WeatherDisplay:10.37,2013-03-23 15:18:00,
2013-03-23 11:23:00,41.2,40.9,28.90,SW,225,0.0,0.0,99,0.00,,,0.04,WeatherDisplay:10.37,2013-03-23 15:23:00,
2013-03-23 11:28:00,41.2,40.9,28.89,SW,225,1.1,0.0,99,0.00,,,0.04,WeatherDisplay:10.37,2013-03-23 15:28:00,
2013-03-23 11:33:00,41.4,41.1,28.89,SW,225,0.0,0.0,99,0.00,,,0.04,WeatherDisplay:10.37,2013-03-23 15:33:00,
2013-03-23 11:38:00,41.4,41.1,28.89,SW,225,2.3,2.3,99,0.00,,,0.04,WeatherDisplay:10.37,2013-03-23 15:38:00,
2013-03-23 11:43:00,41.5,41.3,28.89,SW,225,0.0,0.0,99,0.00,,,0.04,WeatherDisplay:10.37,2013-03-23 15:43:00,
2013-03-23 11:48:00,41.7,41.5,28.88,SW,225,2.3,0.0,99,0.00,,,0.04,WeatherDisplay:10.37,2013-03-23 15:48:00,
2013-03-23 11:53:00,41.9,41.6,28.89,SW,225,1.1,0.0,99,0.00,,,0.04,WeatherDisplay:10.37,2013-03-23 15:53:00,
2013-03-23 11:58:00,42.1,41.8,28.88,SW,225,3.5,0.0,99,0.00,,,0.04,WeatherDisplay:10.37,2013-03-23 15:58:00,
2013-03-23 12:03:00,42.4,42.2,28.88,NE,45,2.3,2.3,99,0.00,,,0.04,WeatherDisplay:10.37,2013-03-23 16:03:00,
2013-03-23 12:08:00,42.6,42.4,28.88,East,90,3.5,3.5,99,0.00,,,0.04,WeatherDisplay:10.37,2013-03-23 16:08:00,
2013-03-23 12:13:00,42.8,42.5,28.87,NW,315,2.3,0.0,99,0.00,,,0.04,WeatherDisplay:10.37,2013-03-23 16:13:00,
2013-03-23 12:18:00,43.0,42.7,28.87,NE,45,3.5,3.5,99,0.00,,,0.04,WeatherDisplay:10.37,2013-03-23 16:18:00,
2013-03-23 12:23:00,43.3,43.1,28.87,NE,45,3.5,3.5,99,0.00,,,0.04,WeatherDisplay:10.37,2013-03-23 16:23:00,
2013-03-23 12:28:00,43.9,43.4,28.87,North,0,3.5,3.5,98,0.00,CLR,,0.04,WeatherDisplay:10.37,2013-03-23 16:28:00,
2013-03-23 12:33:00,44.4,43.1,28.87,North,0,2.3,2.3,95,0.00,CLR,,0.04,WeatherDisplay:10.37,2013-03-23 16:33:00,
2013-03-23 12:38:00,45.1,43.8,28.87,NE,45,3.5,3.5,95,0.00,CLR,,0.04,WeatherDisplay:10.37,2013-03-23 16:38:00,
2013-03-23 12:43:00,45.0,43.1,28.87,North,0,3.5,3.5,93,0.00,CLR,,0.04,WeatherDisplay:10.37,2013-03-23 16:43:00,
2013-03-23 12:48:00,45.3,43.4,28.87,SW,225,3.5,3.5,93,0.00,CLR,,0.04,WeatherDisplay:10.37,2013-03-23 16:48:00,
2013-03-23 12:53:00,45.3,43.4,28.87,SW,225,3.5,3.5,93,0.00,CLR,,0.04,WeatherDisplay:10.37,2013-03-23 16:53:00,
2013-03-23 12:58:00,45.7,43.5,28.86,South,180,3.5,3.5,92,0.00,CLR,,0.04,WeatherDisplay:10.37,2013-03-23 16:58:00,
2013-03-23 13:03:00,46.0,43.6,28.86,South,180,3.5,3.5,91,0.00,CLR,,0.04,WeatherDisplay:10.37,2013-03-23 17:03:00,
2013-03-23 13:08:00,46.6,44.4,28.86,South,180,2.3,0.0,92,0.00,CLR,,0.04,WeatherDisplay:10.37,2013-03-23 17:08:00,
2013-03-23 13:13:00,46.9,44.2,28.86,North,0,3.5,3.5,90,0.00,CLR,,0.04,WeatherDisplay:10.37,2013-03-23 17:13:00,
2013-03-23 13:18:00,46.9,43.6,28.85,SE,135,3.5,3.5,88,0.00,CLR,,0.04,WeatherDisplay:10.37,2013-03-23 17:18:00,
2013-03-23 13:23:00,47.7,43.7,28.85,North,0,3.5,0.0,86,0.00,CLR,,0.04,WeatherDisplay:10.37,2013-03-23 17:23:00,
2013-03-23 13:28:00,48.7,45.6,28.85,South,180,3.5,3.5,89,0.00,CLR,,0.04,WeatherDisplay:10.37,2013-03-23 17:28:00,
2013-03-23 13:33:00,49.5,45.8,28.85,South,180,2.3,2.3,87,0.00,CLR,,0.04,WeatherDisplay:10.37,2013-03-23 17:33:00,
2013-03-23 13:38:00,50.5,45.9,28.85,NW,315,3.5,3.5,84,0.00,CLR,,0.04,WeatherDisplay:10.37,2013-03-23 17:38:00,
2013-03-23 13:43:00,51.1,46.7,28.85,NW,315,1.1,0.0,85,0.00,CLR,,0.04,WeatherDisplay:10.37,2013-03-23 17:43:00,
2013-03-23 13:48:00,51.4,45.8,28.85,NW,315,3.5,3.5,81,0.00,CLR,,0.04,WeatherDisplay:10.37,2013-03-23 17:48:00,
2013-03-23 13:53:00,51.3,44.6,28.85,NE,45,3.5,3.5,78,0.00,CLR,,0.04,WeatherDisplay:10.37,2013-03-23 17:53:00,
2013-03-23 13:58:00,50.9,44.6,28.84,West,270,2.3,0.0,79,0.00,CLR,,0.04,WeatherDisplay:10.37,2013-03-23 17:58:00,
2013-03-23 14:03:00,51.3,45.6,28.84,SW,225,0.0,0.0,81,0.00,CLR,,0.04,WeatherDisplay:10.37,2013-03-23 18:03:00,
2013-03-23 14:08:00,51.6,45.0,28.84,East,90,3.5,3.5,78,0.00,CLR,,0.04,WeatherDisplay:10.37,2013-03-23 18:08:00,
2013-03-23 14:13:00,51.1,45.5,28.84,North,0,4.5,4.5,81,0.00,CLR,,0.04,WeatherDisplay:10.37,2013-03-23 18:13:00,
2013-03-23 14:18:00,50.9,44.9,28.84,West,270,1.1,0.0,80,0.00,CLR,,0.04,WeatherDisplay:10.37,2013-03-23 18:18:00,
2013-03-23 14:23:00,51.3,45.3,28.84,SW,225,2.3,2.3,80,0.00,CLR,,0.04,WeatherDisplay:10.37,2013-03-23 18:23:00,
2013-03-23 14:28:00,51.4,44.5,28.83,SW,225,0.0,0.0,77,0.00,CLR,,0.04,WeatherDisplay:10.37,2013-03-23 18:28:00,
2013-03-23 14:33:00,51.3,44.3,28.83,SW,225,3.5,3.5,77,0.00,CLR,,0.04,WeatherDisplay:10.37,2013-03-23 18:33:00,
2013-03-23 14:38:00,50.9,44.6,28.83,North,0,1.1,1.1,79,0.00,CLR,,0.04,WeatherDisplay:10.37,2013-03-23 18:38:00,
2013-03-23 14:43:00,51.3,45.0,28.83,South,180,1.1,0.0,79,0.00,CLR,,0.04,WeatherDisplay:10.37,2013-03-23 18:43:00,
2013-03-23 14:48:00,51.8,45.2,28.82,North,0,1.1,0.0,78,0.00,CLR,,0.04,WeatherDisplay:10.37,2013-03-23 18:48:00,
2013-03-23 14:53:00,52.2,45.2,28.82,South,180,3.5,0.0,77,0.00,CLR,,0.04,WeatherDisplay:10.37,2013-03-23 18:53:00,
2013-03-23 14:58:00,52.9,45.9,28.82,South,180,2.3,0.0,77,0.00,CLR,,0.04,WeatherDisplay:10.37,2013-03-23 18:58:00,
2013-03-23 15:03:00,53.2,45.5,28.82,SE,135,3.5,3.5,75,0.00,CLR,,0.04,WeatherDisplay:10.37,2013-03-23 19:03:00,
2013-03-23 15:08:00,53.4,46.4,28.82,East,90,3.5,3.5,77,0.00,CLR,,0.04,WeatherDisplay:10.37,2013-03-23 19:08:00,
2013-03-23 15:13:00,54.1,46.7,28.81,SW,225,2.3,2.3,76,0.00,CLR,,0.04,WeatherDisplay:10.37,2013-03-23 19:13:00,
2013-03-23 15:18:00,54.5,46.0,28.82,East,90,5.8,5.8,73,0.00,CLR,,0.04,WeatherDisplay:10.37,2013-03-23 19:18:00,
2013-03-23 15:23:00,54.5,46.0,28.81,NW,315,5.8,0.0,73,0.00,CLR,,0.04,WeatherDisplay:10.37,2013-03-23 19:23:00,
2013-03-23 15:28:00,55.2,46.7,28.81,North,0,3.5,3.5,73,0.00,CLR,,0.04,WeatherDisplay:10.37,2013-03-23 19:28:00,
2013-03-23 15:33:00,56.8,47.2,28.80,SW,225,4.6,4.6,70,0.00,CLR,,0.04,WeatherDisplay:10.37,2013-03-23 19:33:00,
2013-03-23 15:38:00,57.6,47.8,28.80,NE,45,5.8,5.8,70,0.00,CLR,,0.04,WeatherDisplay:10.37,2013-03-23 19:38:00,
2013-03-23 15:43:00,57.9,47.0,28.80,SW,225,3.5,3.5,67,0.00,CLR,,0.04,WeatherDisplay:10.37,2013-03-23 19:43:00,
2013-03-23 15:48:00,57.2,45.9,28.80,SE,135,3.5,3.8,66,0.00,CLR,,0.04,WeatherDisplay:10.37,2013-03-23 19:48:00,
2013-03-23 15:53:00,57.4,46.9,28.80,SE,135,5.8,5.8,68,0.00,CLR,,0.04,WeatherDisplay:10.37,2013-03-23 19:53:00,
2013-03-23 15:58:00,57.4,47.7,28.80,South,180,2.3,0.0,70,0.00,CLR,,0.04,WeatherDisplay:10.37,2013-03-23 19:58:00,
2013-03-23 16:03:00,58.5,47.1,28.79,East,90,5.8,5.8,66,0.00,CLR,,0.04,WeatherDisplay:10.37,2013-03-23 20:03:00,
2013-03-23 16:08:00,59.4,48.8,28.79,South,180,3.5,0.0,68,0.00,CLR,,0.04,WeatherDisplay:10.37,2013-03-23 20:08:00,
2013-03-23 16:13:00,59.5,47.8,28.79,East,90,1.1,1.6,65,0.00,CLR,,0.04,WeatherDisplay:10.37,2013-03-23 20:13:00,
2013-03-23 16:18:00,60.3,47.6,28.79,SW,225,5.8,5.8,63,0.00,CLR,,0.04,WeatherDisplay:10.37,2013-03-23 20:18:00,
2013-03-23 16:23:00,60.8,48.1,28.79,South,180,1.1,0.0,63,0.00,CLR,,0.04,WeatherDisplay:10.37,2013-03-23 20:23:00,
2013-03-23 16:28:00,60.6,47.1,28.78,North,0,6.9,6.9,61,0.00,CLR,,0.04,WeatherDisplay:10.37,2013-03-23 20:28:00,
2013-03-23 16:33:00,59.4,47.6,28.78,NE,45,3.5,3.5,65,0.00,CLR,,0.04,WeatherDisplay:10.37,2013-03-23 20:33:00,
2013-03-23 16:38:00,58.1,46.4,28.77,East,90,8.1,8.1,65,0.00,CLR,,0.04,WeatherDisplay:10.37,2013-03-23 20:38:00,
2013-03-23 16:43:00,58.5,47.5,28.77,East,90,4.6,4.6,67,0.00,CLR,,0.04,WeatherDisplay:10.37,2013-03-23 20:43:00,
2013-03-23 16:48:00,58.3,47.0,28.77,NW,315,6.9,0.0,66,0.00,CLR,,0.04,WeatherDisplay:10.37,2013-03-23 20:48:00,
2013-03-23 16:53:00,59.7,47.5,28.77,South,180,5.8,0.0,64,0.00,CLR,,0.04,WeatherDisplay:10.37,2013-03-23 20:53:00,
2013-03-23 16:58:00,59.5,46.9,28.77,NE,45,4.6,4.6,63,0.00,CLR,,0.04,WeatherDisplay:10.37,2013-03-23 20:58:00,
2013-03-23 17:03:00,58.6,46.9,28.77,SE,135,4.6,4.6,65,0.00,CLR,,0.04,WeatherDisplay:10.37,2013-03-23 21:03:00,
2013-03-23 17:08:00,57.9,46.6,28.77,North,0,5.8,5.8,66,0.00,CLR,,0.04,WeatherDisplay:10.37,2013-03-23 21:08:00,
2013-03-23 17:13:00,58.5,47.1,28.77,SW,225,3.5,3.5,66,0.00,CLR,,0.04,WeatherDisplay:10.37,2013-03-23 21:13:00,
2013-03-23 17:18:00,57.7,46.0,28.77,East,90,5.8,5.8,65,0.00,CLR,,0.04,WeatherDisplay:10.37,2013-03-23 21:18:00,
2013-03-23 17:23:00,57.4,46.1,28.77,East,90,5.8,5.8,66,0.00,CLR,,0.04,WeatherDisplay:10.37,2013-03-23 21:23:00,
2013-03-23 17:28:00,57.4,46.1,28.77,SW,225,2.3,0.0,66,0.00,CLR,,0.04,WeatherDisplay:10.37,2013-03-23 21:28:00,
2013-03-23 17:33:00,57.7,46.5,28.76,North,0,3.5,3.5,66,0.00,CLR,,0.04,WeatherDisplay:10.37,2013-03-23 21:33:00,
2013-03-23 17:38:00,57.6,46.7,28.76,SW,225,3.5,3.5,67,0.00,CLR,,0.04,WeatherDisplay:10.37,2013-03-23 21:38:00,
2013-03-23 17:43:00,57.6,46.3,28.77,SW,225,3.5,3.5,66,0.00,CLR,,0.04,WeatherDisplay:10.37,2013-03-23 21:43:00,
2013-03-23 17:48:00,57.6,46.3,28.76,SW,225,3.5,3.5,66,0.00,CLR,,0.04,WeatherDisplay:10.37,2013-03-23 21:48:00,
2013-03-23 17:57:00,57.6,46.7,28.77,SW,225,3.5,3.5,67,0.00,CLR,,0.04,WeatherDisplay:10.37,2013-03-23 21:57:00,
2013-03-23 18:02:00,57.2,46.3,28.77,SE,135,3.5,0.0,67,0.00,RA,,0.04,WeatherDisplay:10.37,2013-03-23 22:02:00,
2013-03-23 18:07:00,57.0,46.2,28.77,South,180,5.8,5.8,67,0.00,RA,,0.04,WeatherDisplay:10.37,2013-03-23 22:07:00,
2013-03-23 18:12:00,57.0,46.6,28.77,South,180,2.3,2.3,68,0.00,CLR,,0.04,WeatherDisplay:10.37,2013-03-23 22:12:00,
2013-03-23 18:17:00,56.8,47.2,28.77,East,90,3.5,3.5,70,0.00,CLR,,0.04,WeatherDisplay:10.37,2013-03-23 22:17:00,
2013-03-23 18:22:00,55.9,46.3,28.77,South,180,3.5,3.5,70,0.00,CLR,,0.04,WeatherDisplay:10.37,2013-03-23 22:22:00,
2013-03-23 18:27:00,55.4,46.5,28.76,North,0,1.1,0.0,72,0.00,CLR,,0.04,WeatherDisplay:10.37,2013-03-23 22:27:00,
2013-03-23 18:32:00,55.2,46.3,28.76,East,90,4.6,4.6,72,0.00,CLR,,0.04,WeatherDisplay:10.37,2013-03-23 22:32:00,
2013-03-23 18:37:00,55.0,46.5,28.76,SW,225,5.8,5.8,73,0.00,CLR,,0.04,WeatherDisplay:10.37,2013-03-23 22:37:00,
2013-03-23 18:42:00,54.7,46.2,28.76,SW,225,2.3,0.0,73,0.00,CLR,,0.04,WeatherDisplay:10.37,2013-03-23 22:42:00,
2013-03-23 18:47:00,54.5,46.7,28.76,NE,45,2.3,2.3,75,0.00,CLR,,0.04,WeatherDisplay:10.37,2013-03-23 22:47:00,
2013-03-23 18:52:00,54.0,46.2,28.77,North,0,3.5,3.5,75,0.00,CLR,,0.04,WeatherDisplay:10.37,2013-03-23 22:52:00,
2013-03-23 18:57:00,53.8,46.4,28.77,SW,225,1.1,0.0,76,0.00,CLR,,0.04,WeatherDisplay:10.37,2013-03-23 22:57:00,
2013-03-23 19:02:00,53.6,46.6,28.77,SW,225,3.5,3.5,77,0.00,CLR,,0.04,WeatherDisplay:10.37,2013-03-23 23:02:00,
2013-03-23 19:07:00,53.4,46.4,28.78,SW,225,1.1,0.0,77,0.00,CLR,,0.04,WeatherDisplay:10.37,2013-03-23 23:07:00,
2013-03-23 19:12:00,53.2,46.6,28.78,SW,225,1.1,0.0,78,0.00,CLR,,0.04,WeatherDisplay:10.37,2013-03-23 23:12:00,
2013-03-23 19:17:00,52.9,46.2,28.78,SW,225,1.1,1.1,78,0.00,CLR,,0.04,WeatherDisplay:10.37,2013-03-23 23:17:00,
2013-03-23 19:22:00,52.5,45.9,28.78,SW,225,1.1,0.0,78,0.00,CLR,,0.04,WeatherDisplay:10.37,2013-03-23 23:22:00,
2013-03-23 19:27:00,52.0,46.0,28.79,SW,225,0.0,0.0,80,0.00,CLR,,0.04,WeatherDisplay:10.37,2013-03-23 23:27:00,
2013-03-23 19:33:00,51.1,46.1,28.79,SW,225,0.0,0.0,83,0.00,CLR,,0.04,WeatherDisplay:10.37,2013-03-23 23:33:00,
2013-03-23 19:38:00,50.2,45.5,28.79,SW,225,1.1,0.0,84,0.00,CLR,,0.04,WeatherDisplay:10.37,2013-03-23 23:38:00,
2013-03-23 19:43:00,49.3,45.6,28.79,SW,225,0.0,0.0,87,0.00,CLR,,0.04,WeatherDisplay:10.37,2013-03-23 23:43:00,
2013-03-23 19:48:00,48.7,45.3,28.80,SW,225,0.0,0.0,88,0.00,CLR,,0.04,WeatherDisplay:10.37,2013-03-23 23:48:00,
2013-03-23 19:53:00,48.2,45.1,28.79,SW,225,0.0,0.0,89,0.00,CLR,,0.04,WeatherDisplay:10.37,2013-03-23 23:53:00,
2013-03-23 19:58:00,47.7,45.2,28.80,SW,225,1.1,0.0,91,0.00,CLR,,0.04,WeatherDisplay:10.37,2013-03-23 23:58:00,
2013-03-23 20:03:00,47.5,45.6,28.79,SW,225,0.0,0.0,93,0.00,CLR,,0.04,WeatherDisplay:10.37,2013-03-24 00:03:00,
2013-03-23 20:08:00,47.5,45.6,28.79,SW,225,0.0,0.0,93,0.00,CLR,,0.04,WeatherDisplay:10.37,2013-03-24 00:08:00,
2013-03-23 20:13:00,47.3,45.7,28.79,SW,225,0.0,0.0,94,0.00,CLR,,0.04,WeatherDisplay:10.37,2013-03-24 00:13:00,
2013-03-23 20:18:00,47.1,45.5,28.79,SW,225,0.0,0.0,94,0.00,CLR,,0.04,WeatherDisplay:10.37,2013-03-24 00:18:00,
2013-03-23 20:23:00,46.9,45.6,28.80,SW,225,0.0,0.0,95,0.00,CLR,,0.04,WeatherDisplay:10.37,2013-03-24 00:23:00,
2013-03-23 20:28:00,46.8,45.4,28.80,SW,225,0.0,0.0,95,0.00,CLR,,0.04,WeatherDisplay:10.37,2013-03-24 00:28:00,
2013-03-23 20:33:00,46.8,45.7,28.80,SW,225,1.1,0.0,96,0.00,CLR,,0.04,WeatherDisplay:10.37,2013-03-24 00:33:00,
2013-03-23 20:38:00,46.6,45.5,28.80,SW,225,0.0,0.0,96,0.00,CLR,,0.04,WeatherDisplay:10.37,2013-03-24 00:38:00,
2013-03-23 20:43:00,46.9,45.9,28.80,SW,225,0.0,0.0,96,0.00,CLR,,0.04,WeatherDisplay:10.37,2013-03-24 00:43:00,
2013-03-23 20:48:00,47.1,46.0,28.80,SW,225,3.5,3.5,96,0.00,CLR,,0.04,WeatherDisplay:10.37,2013-03-24 00:48:00,
2013-03-23 20:53:00,47.5,46.1,28.80,SW,225,0.0,0.0,95,0.00,CLR,,0.04,WeatherDisplay:10.37,2013-03-24 00:53:00,
2013-03-23 20:58:00,47.3,45.7,28.80,SW,225,0.0,0.0,94,0.00,CLR,,0.04,WeatherDisplay:10.37,2013-03-24 00:58:00,
2013-03-23 21:03:00,46.9,45.6,28.80,SW,225,0.0,0.0,95,0.00,CLR,,0.04,WeatherDisplay:10.37,2013-03-24 01:03:00,
2013-03-23 21:08:00,46.6,45.2,28.81,SW,225,0.0,0.0,95,0.00,CLR,,0.04,WeatherDisplay:10.37,2013-03-24 01:08:00,
2013-03-23 21:13:00,46.2,44.9,28.81,SW,225,0.0,0.0,95,0.00,CLR,,0.04,WeatherDisplay:10.37,2013-03-24 01:13:00,
2013-03-23 21:18:00,45.9,44.8,28.81,SW,225,0.0,0.0,96,0.00,CLR,,0.04,WeatherDisplay:10.37,2013-03-24 01:18:00,
2013-03-23 21:23:00,45.5,45.0,28.81,SW,225,1.1,0.0,98,0.00,CLR,,0.04,WeatherDisplay:10.37,2013-03-24 01:23:00,
2013-03-23 21:28:00,45.3,45.1,28.81,SW,225,0.0,0.0,99,0.00,CLR,,0.04,WeatherDisplay:10.37,2013-03-24 01:28:00,
2013-03-23 21:33:00,45.0,44.7,28.80,SW,225,2.3,0.0,99,0.00,,,0.04,WeatherDisplay:10.37,2013-03-24 01:33:00,
2013-03-23 21:38:00,44.6,44.3,28.80,SW,225,1.1,0.0,99,0.00,,,0.04,WeatherDisplay:10.37,2013-03-24 01:38:00,
2013-03-23 21:43:00,44.4,44.2,28.79,SW,225,2.3,0.0,99,0.00,,,0.04,WeatherDisplay:10.37,2013-03-24 01:43:00,
2013-03-23 21:48:00,44.2,44.0,28.80,SW,225,0.0,0.0,99,0.00,,,0.04,WeatherDisplay:10.37,2013-03-24 01:48:00,
2013-03-23 21:53:00,43.9,43.6,28.81,SW,225,0.0,0.0,99,0.00,,,0.04,WeatherDisplay:10.37,2013-03-24 01:53:00,
2013-03-23 21:58:00,43.3,43.1,28.81,SW,225,0.0,0.0,99,0.00,,,0.04,WeatherDisplay:10.37,2013-03-24 01:58:00,
2013-03-23 22:03:00,43.0,42.7,28.81,SW,225,0.0,0.0,99,0.00,,,0.04,WeatherDisplay:10.37,2013-03-24 02:03:00,
2013-03-23 22:08:00,42.6,42.4,28.81,SW,225,0.0,0.0,99,0.00,,,0.04,WeatherDisplay:10.37,2013-03-24 02:08:00,
2013-03-23 22:13:00,42.1,41.8,28.81,SW,225,1.1,0.0,99,0.00,,,0.04,WeatherDisplay:10.37,2013-03-24 02:13:00,
2013-03-23 22:18:00,41.7,41.5,28.81,SW,225,1.1,0.0,99,0.00,,,0.04,WeatherDisplay:10.37,2013-03-24 02:18:00,
2013-03-23 22:23:00,41.4,41.1,28.81,SW,225,0.0,0.0,99,0.00,,,0.04,WeatherDisplay:10.37,2013-03-24 02:23:00,
2013-03-23 22:28:00,41.2,40.9,28.81,SW,225,0.0,0.0,99,0.00,,,0.04,WeatherDisplay:10.37,2013-03-24 02:28:00,
2013-03-23 22:33:00,41.0,40.7,28.80,SW,225,1.1,0.0,99,0.00,,,0.04,WeatherDisplay:10.37,2013-03-24 02:33:00,
2013-03-23 22:38:00,41.0,40.7,28.80,SW,225,0.0,0.7,99,0.00,,,0.04,WeatherDisplay:10.37,2013-03-24 02:38:00,
2013-03-23 22:43:00,41.0,40.7,28.80,SW,225,1.1,0.0,99,0.00,,,0.04,WeatherDisplay:10.37,2013-03-24 02:43:00,
2013-03-23 22:48:00,40.8,40.6,28.79,SW,225,1.6,1.6,99,0.00,,,0.04,WeatherDisplay:10.37,2013-03-24 02:48:00,
2013-03-23 22:53:00,40.6,40.4,28.79,SW,225,2.3,0.0,99,0.00,,,0.04,WeatherDisplay:10.37,2013-03-24 02:53:00,
2013-03-23 22:58:00,40.3,40.0,28.79,SW,225,0.0,0.0,99,0.00,,,0.04,WeatherDisplay:10.37,2013-03-24 02:58:00,
2013-03-23 23:03:00,39.7,39.5,28.78,SW,225,0.0,0.0,99,0.00,,,0.04,WeatherDisplay:10.37,2013-03-24 03:03:00,
2013-03-23 23:08:00,39.6,39.3,28.79,SW,225,0.0,0.0,99,0.00,,,0.04,WeatherDisplay:10.37,2013-03-24 03:08:00,
2013-03-23 23:13:00,39.2,38.9,28.81,SW,225,0.0,0.0,99,0.00,,,0.04,WeatherDisplay:10.37,2013-03-24 03:13:00,
2013-03-23 23:18:00,38.7,38.4,28.80,SW,225,0.0,0.0,99,0.00,,,0.04,WeatherDisplay:10.37,2013-03-24 03:18:00,
2013-03-23 23:23:00,38.3,38.0,28.79,SW,225,0.0,0.0,99,0.00,,,0.04,WeatherDisplay:10.37,2013-03-24 03:23:00,
2013-03-23 23:28:00,38.1,37.9,28.79,SW,225,0.0,0.0,99,0.00,,,0.04,WeatherDisplay:10.37,2013-03-24 03:28:00,
2013-03-23 23:33:00,37.9,37.7,28.78,SW,225,0.0,0.0,99,0.00,,,0.04,WeatherDisplay:10.37,2013-03-24 03:33:00,
2013-03-23 23:38:00,37.9,37.7,28.78,SW,225,0.0,0.0,99,0.00,,,0.04,WeatherDisplay:10.37,2013-03-24 03:38:00,
2013-03-23 23:43:00,37.6,37.3,28.80,SW,225,0.0,0.0,99,0.00,,,0.04,WeatherDisplay:10.37,2013-03-24 03:43:00,
2013-03-23 23:48:00,37.6,37.3,28.80,SW,225,0.0,0.0,99,0.00,,,0.04,WeatherDisplay:10.37,2013-03-24 03:48:00,
2013-03-23 23:53:00,37.4,37.1,28.80,SW,225,0.0,0.0,99,0.00,,,0.04,WeatherDisplay:10.37,2013-03-24 03:53:00,
2013-03-23 23:58:00,37.0,36.8,28.80,SW,225,0.0,0.0,99,0.00,,,0.04,WeatherDisplay:10.37,2013-03-24 03:58:00,